Startpagina
METAR-TAF:

METAR-TAF

Vliegvelden :

Lima, Peru

Aeropuerto Internacional Jorge Chávez

breedte: 12-00S, lengte: 077-07W, hoogte: 12 m

Actueel weer

Dit bericht is 57 minuten geleden gemaakt, om 12:00 UTC
Wind 7 kt uit het zuidzuidoosten
Temperatuur 19°C
Vochtigheid 88%
Druk 1016 hPa
Zicht 10 km of meer
Geheel bewolkt op 3000 ft

METAR: SPJC 261200Z 16007KT 9999 OVC030 19/17 Q1016 NOSIG RMK PP000

Tijdstip: 07:57 (12:57 UTC)

Verwachting

Dit bericht is 1 uur en het 57 minuten geleden gemaakt, om 11:00 UTC
Verwachting geldig van 26 om 12 UTC tot 27 om 12 UTC
Wind 8 kt uit het zuiden
Zicht 10 km of meer
Geheel bewolkt op 3000 ft
Van 26 om 1800 UTC
Wind 12 kt uit het zuiden
Zicht 10 km of meer
Gebroken wolken op 4000 ft
Van 27 om 0600 UTC
Wind 8 kt uit het zuidzuidoosten
Zicht 10 km of meer
Weinig wolken op 800 ft
Geheel bewolkt op 2500 ft

TAF: SPJC 261100Z 2612/2712 18008KT 9999 OVC030 TX22/2619Z TN18/2711Z FM261800 18012KT 9999 BKN040 FM270600 16008KT 9999 FEW008 OVC025

Waarnemingen en weersverwachtingen van meer dan 4000 vliegvelden (METAR en TAF).

De beschikbare stations zijn de gele en rode punten op de kaart.

Ga met uw muis naar het station om de naam te zien.

Klik dan om waarnemingen en weersverwachtingen te zien.

kaart wijzigen: klik op de groene knoppen met een zwart kruis om in te zoomen, op de groene knop met een streepje om uit te zoomen of op de groene pijlen voor aangrenzende kaarten.


METAR-TAF: